Abercanaid, United Kingdom
Current Conditions -  °F | °C
As of 12:20 PM on Monday 26 Jan 2015 (Local Time) from EGFF Reporting Station
Overcast Overcast  
Wind Chill: 40°   Ceiling: 2900
Heat Index: 46°   Visibility: 6mi
Dew Point: 39°   Wind: 14mph
Humidity: 76%   Direction: 300°WNW
Pressure: 30.3"   Gusts: NA
Location:  51.72°N, 3.37°W
Report Text: EGFF 261220Z AUTO 30012KT 9999 OVC029 08/04 Q1026
Loading
Personal Weather Stations






























Interactive Weather Map New forecast layout! Learn more

10-Day Weather Forecast

Advertisements
Track Severe Weather on mobile